Latest Weather Observations for Mount Crawford

IDS60801

Issued at 4:11 pm CDT Saturday 10 December 2022 (issued every 10 minutes, with the page automatically refreshed every 10 minutes)

About weather observations | Map of weather stations | Latest weather observations for SA | Other Formats
Station Details ID: 023878 Name: MOUNT CRAWFORD AWS Lat: -34.73 Lon: 138.93 Height: 525.0 m
Data from the previous 72 hours. | See also: Recent months at Mount Crawford
Date/Time
CDT
Temp
°C
App
Temp
°C
Dew
Point
°C
Rel
Hum
%
Delta-T
°C
Wind Press
QNH
hPa
Press
MSL
hPa
Rain since
9am
mm
Dir  Spd
km/h
Gust
km/h
Spd
kts
Gust
kts
10/04:10pm 30.4 23.1 5.6 21 13.4 NNW 33 52 18 28 1008.1 1006.2 0.0
10/04:00pm 29.6 21.8 5.0 21 13.1 NNW 35 52 19 28 1008.2 1006.3 0.0
10/03:49pm 30.3 22.9 4.9 20 13.5 NW 33 48 18 26 1008.4 1006.5 0.0
10/03:30pm 30.2 26.9 9.7 28 11.8 N 17 30 9 16 1008.7 1006.9 0.0
10/03:14pm 29.3 24.2 6.0 23 12.6 N 22 44 12 24 1008.9 1007.1 0.0
10/03:00pm 29.0 25.0 8.1 27 11.7 N 19 26 10 14 1009.1 1007.2 0.0
10/02:30pm 27.6 20.9 7.5 28 11.0 NNE 32 44 17 24 1009.4 1007.5 0.0
10/02:00pm 28.4 23.0 9.6 31 10.7 NE 28 39 15 21 1009.7 1007.8 0.0
10/01:30pm 28.1 23.2 8.4 29 11.0 NE 24 33 13 18 1010.2 1008.3 0.0
10/01:00pm 26.9 22.6 9.3 33 9.9 ENE 22 32 12 17 1010.7 1008.9 0.0
10/12:30pm 27.3 23.5 9.2 32 10.2 NE 19 32 10 17 1011.1 1009.2 0.0
10/12:00pm 26.2 22.2 8.2 32 9.9 N 19 24 10 13 1011.5 1009.6 0.0
10/11:30am 25.8 22.1 7.9 32 9.8 N 17 22 9 12 1011.7 1009.8 0.0
10/11:00am 26.2 22.4 7.7 31 10.1 N 17 24 9 13 1012.1 1010.3 0.0
10/10:30am 24.3 21.0 7.9 35 8.9 NNE 15 20 8 11 1011.8 1009.9 0.0
10/10:00am 23.6 21.1 8.1 37 8.4 NE 11 17 6 9 1012.2 1010.4 0.0
10/09:30am 21.6 18.8 8.5 43 7.1 NE 13 17 7 9 1012.6 1010.8 0.0
10/09:00am 19.6 15.8 7.4 45 6.4 ENE 17 22 9 12 1012.8 1011.0 0.0
10/08:30am 18.7 14.6 6.2 44 6.4 ENE 17 22 9 12 1012.9 1011.1 0.0
10/08:00am 17.1 12.5 5.7 47 5.7 NE 19 26 10 14 1012.8 1011.0 0.0
10/07:30am 16.7 11.8 5.0 46 5.7 NE 20 30 11 16 1012.6 1010.8 0.0
10/07:00am 16.7 11.0 5.0 46 5.7 NE 24 32 13 17 1012.6 1010.8 0.0
10/06:30am 15.8 10.0 4.2 46 5.6 NE 24 33 13 18 1012.3 1010.5 0.0
10/06:00am 15.3 8.7 4.1 47 5.3 NE 28 41 15 22 1012.3 1010.5 0.0
10/05:30am 15.3 7.9 3.8 46 5.4 NE 32 46 17 25 1012.3 1010.5 0.0
10/05:12am 15.1 8.4 3.6 46 5.4 NE 28 46 15 25 1012.2 1010.4 0.0
10/05:00am 15.0 7.5 3.2 45 5.5 NE 32 41 17 22 1012.1 1010.3 0.0
10/04:30am 14.8 7.2 3.0 45 5.5 NE 32 43 17 23 1012.1 1010.3 0.0
10/04:00am 15.1 7.6 3.3 45 5.5 NE 32 48 17 26 1011.9 1010.0 0.0
10/03:30am 14.9 7.4 3.7 47 5.3 ENE 32 43 17 23 1011.9 1010.0 0.0
10/03:00am 15.3 7.7 3.8 46 5.4 ENE 33 46 18 25 1012.2 1010.4 0.0
10/02:30am 15.5 8.0 3.3 44 5.7 ENE 32 44 17 24 1012.3 1010.5 0.0
10/02:00am 15.5 7.8 3.3 44 5.7 NE 33 48 18 26 1012.7 1010.9 0.0
10/01:30am 15.6 7.5 3.1 43 5.8 ENE 35 43 19 23 1012.7 1010.9 0.0
10/01:00am 15.6 7.9 3.4 44 5.7 ENE 33 44 18 24 1013.2 1011.3 0.0
10/12:30am 15.3 7.7 3.8 46 5.4 ENE 33 43 18 23 1013.4 1011.5 0.0
10/12:00am 15.2 8.2 4.0 47 5.3 ENE 30 39 16 21 1013.7 1011.8 0.0
 
Date/Time
CDT
Temp
°C
App
Temp
°C
Dew
Point
°C
Rel
Hum
%
Delta-T
°C
Wind Press
QNH
hPa
Press
MSL
hPa
Rain since
9am
mm
Dir  Spd
km/h
Gust
km/h
Spd
kts
Gust
kts
09/11:30pm 15.3 8.6 3.8 46 5.4 E 28 35 15 19 1013.8 1012.0 0.0
09/11:00pm 15.4 9.5 3.9 46 5.5 E 24 30 13 16 1014.0 1012.2 0.0
09/10:30pm 15.9 10.0 4.0 45 5.7 E 24 30 13 16 1014.1 1012.3 0.0
09/10:00pm 15.9 10.1 4.6 47 5.5 E 24 28 13 15 1014.1 1012.3 0.0
09/09:30pm 16.0 10.7 5.0 48 5.4 E 22 28 12 15 1013.9 1012.1 0.0
09/09:00pm 16.6 11.9 5.9 49 5.3 E 20 24 11 13 1013.8 1012.0 0.0
09/08:30pm 17.2 13.1 6.1 48 5.6 E 17 22 9 12 1013.7 1011.8 0.0
09/08:00pm 17.7 13.6 6.3 47 5.8 E 17 22 9 12 1013.6 1011.7 0.0
09/07:30pm 19.1 15.4 6.2 43 6.6 ENE 15 22 8 12 1013.6 1011.7 0.0
09/07:00pm 19.9 16.2 6.3 41 7.0 ENE 15 20 8 11 1013.6 1011.7 0.0
09/06:30pm 20.5 16.8 6.5 40 7.2 ENE 15 24 8 13 1013.4 1011.5 0.0
09/06:00pm 20.7 17.1 6.6 40 7.3 ENE 15 26 8 14 1013.2 1011.3 0.0
09/05:30pm 20.9 17.3 6.8 40 7.4 E 15 24 8 13 1013.5 1011.6 0.0
09/05:00pm 21.7 18.5 6.8 38 7.8 NE 13 19 7 10 1013.8 1012.0 0.0
09/04:30pm 21.5 19.0 6.6 38 7.8 ESE 9 19 5 10 1014.0 1012.2 0.0
09/04:00pm 20.9 18.5 6.8 40 7.4 NE 9 17 5 9 1014.3 1012.5 0.0
09/03:30pm 20.8 17.6 6.7 40 7.3 E 13 20 7 11 1014.5 1012.7 0.0
09/03:00pm 19.7 16.3 6.1 41 6.9 ENE 13 22 7 12 1014.8 1013.0 0.0
09/02:30pm 19.6 16.3 6.4 42 6.8 NNE 13 24 7 13 1015.1 1013.2 0.0
09/02:00pm 18.9 15.7 6.7 45 6.3 NNE 13 20 7 11 1015.5 1013.7 0.0
09/01:30pm 18.1 14.0 6.3 46 6.0 ENE 17 26 9 14 1015.7 1013.9 0.0
09/01:00pm 18.1 13.9 5.7 44 6.2 NE 17 22 9 12 1015.9 1014.1 0.0
09/12:30pm 16.2 11.3 4.9 47 5.5 ENE 20 30 11 16 1016.2 1014.4 0.0
09/12:00pm 15.4 10.5 5.0 50 5.0 NE 20 28 11 15 1016.4 1014.6 0.0
09/11:30am 15.3 10.2 6.1 54 4.6 ENE 22 35 12 19 1016.4 1014.6 0.0
09/11:00am 13.7 7.6 4.8 55 4.2 NE 26 33 14 18 1016.5 1014.7 0.0
09/10:30am 14.9 9.2 6.7 58 4.1 ENE 26 37 14 20 1016.4 1014.6 0.0
09/10:00am 12.4 6.4 5.1 61 3.5 ENE 26 33 14 18 1016.7 1014.9 0.0
09/09:30am 10.7 4.0 3.5 61 3.3 ENE 28 35 15 19 1017.1 1015.2 0.0
09/09:00am 9.4 3.1 4.0 69 2.4 ENE 26 33 14 18 1017.7 1015.9 0.0
09/08:30am 8.9 2.6 3.7 70 2.3 ENE 26 33 14 18 1017.9 1016.1 0.0
09/08:00am 8.2 1.1 3.5 72 2.1 ENE 30 41 16 22 1017.5 1015.7 0.0
09/07:30am 7.7 1.0 3.6 75 1.8 E 28 43 15 23 1016.7 1014.9 0.0
09/07:00am 7.7 0.6 3.4 74 1.9 E 30 43 16 23 1016.1 1014.3 0.0
09/06:30am 7.6 0.5 3.3 74 1.9 E 30 39 16 21 1015.6 1013.8 0.0
09/06:00am 7.7 1.4 3.6 75 1.8 E 26 39 14 21 1016.0 1014.2 0.0
09/05:30am 7.9 1.2 3.4 73 2.0 E 28 39 15 21 1015.7 1013.9 0.0
09/05:00am 7.8 1.1 3.5 74 1.9 E 28 39 15 21 1014.4 1012.6 0.0
09/04:30am 7.6 0.9 3.8 77 1.7 E 28 37 15 20 1014.4 1012.6 0.0
09/04:00am 7.5 0.8 3.9 78 1.6 E 28 37 15 20 1014.7 1012.9 0.0
09/03:30am 7.6 1.0 4.0 78 1.6 E 28 35 15 19 1015.2 1013.3 0.0
09/03:00am 7.9 1.3 4.3 78 1.6 ESE 28 35 15 19 1015.5 1013.7 0.0
09/02:30am 8.0 1.1 4.4 78 1.6 ESE 30 39 16 21 1015.5 1013.7 0.0
09/02:00am 7.9 0.7 4.8 81 1.4 ESE 32 39 17 21 1015.4 1013.5 0.0
09/01:30am 7.8 1.0 5.3 84 1.1 ESE 30 39 16 21 1016.3 1014.5 0.0
09/01:00am 7.6 1.2 5.1 84 1.1 ESE 28 39 15 21 1016.8 1015.0 0.0
09/12:30am 7.5 1.1 5.0 84 1.1 SE 28 39 15 21 1017.2 1015.4 0.0
09/12:00am 7.7 1.3 5.0 83 1.2 SE 28 41 15 22 1017.3 1015.5 0.0
 
Date/Time
CDT
Temp
°C
App
Temp
°C
Dew
Point
°C
Rel
Hum
%
Delta-T
°C
Wind Press
QNH
hPa
Press
MSL
hPa
Rain since
9am
mm
Dir  Spd
km/h
Gust
km/h
Spd
kts
Gust
kts
08/11:30pm 7.7 0.8 4.7 81 1.4 SE 30 39 16 21 1017.2 1015.4 0.0
08/11:00pm 8.0 1.9 4.8 80 1.5 SE 26 37 14 20 1017.8 1016.0 0.0
08/10:30pm 8.1 2.7 4.7 79 1.5 SE 22 33 12 18 1018.2 1016.4 0.0
08/10:00pm 8.5 2.0 4.5 76 1.8 SE 28 39 15 21 1017.9 1016.1 0.0
08/09:30pm 8.5 3.1 4.3 75 1.9 SE 22 30 12 16 1017.8 1016.0 0.0
08/09:00pm 8.9 4.8 4.3 73 2.1 SE 15 20 8 11 1017.8 1016.0 0.0
08/08:30pm 9.5 6.2 4.5 71 2.3 SE 11 17 6 9 1017.7 1015.9 0.0
08/08:00pm 10.4 5.6 4.5 67 2.7 SE 19 28 10 15 1017.3 1015.5 0.0
08/07:30pm 11.2 6.9 5.3 67 2.8 SE 17 28 9 15 1016.9 1015.1 0.0
08/07:00pm 11.8 7.1 5.9 67 2.8 SE 20 35 11 19 1016.3 1014.5 0.0
08/06:30pm 13.0 8.2 5.7 61 3.5 SE 20 32 11 17 1016.0 1014.2 0.0
08/06:00pm 13.9 9.0 5.3 56 4.2 SE 20 33 11 18 1015.7 1013.9 0.0
08/05:30pm 14.5 9.7 5.8 56 4.3 SE 20 30 11 16 1015.9 1014.1 0.0
08/05:00pm 16.1 11.7 6.5 53 4.8 SE 19 28 10 15 1016.1 1014.3 0.0
08/04:30pm 16.1 11.3 5.7 50 5.1 S 20 30 11 16 1016.6 1014.8 0.0
08/04:00pm 16.2 11.4 5.5 49 5.3 SE 20 32 11 17 1016.4 1014.6 0.0
08/03:30pm 15.7 11.2 5.9 52 4.8 S 19 30 10 16 1017.1 1015.2 0.0
08/03:00pm 15.5 10.3 5.7 52 4.8 S 22 32 12 17 1017.6 1015.8 0.0
08/02:30pm 14.8 9.8 6.6 58 4.1 S 22 33 12 18 1017.8 1016.0 0.0
08/02:00pm 15.2 10.6 6.5 56 4.3 SE 20 33 11 18 1018.1 1016.3 0.0
08/01:30pm 15.3 10.3 4.4 48 5.2 S 20 37 11 20 1018.1 1016.3 0.0
08/01:00pm 14.8 9.8 3.6 47 5.3 S 19 33 10 18 1017.7 1015.9 0.0
08/12:30pm 14.2 9.6 3.9 50 4.8 SSW 17 26 9 14 1018.1 1016.3 0.0
08/12:00pm 13.9 10.3 4.8 54 4.3 S 13 28 7 15 1018.4 1016.6 0.0
08/11:30am 12.9 8.0 4.3 56 4.0 S 19 28 10 15 1018.4 1016.6 0.0
08/11:00am 13.4 8.3 4.0 53 4.4 S 20 30 11 16 1018.3 1016.5 0.0
08/10:30am 13.3 8.3 3.7 52 4.5 SSE 19 32 10 17 1018.5 1016.7 0.0
08/10:00am 12.2 6.8 2.6 52 4.3 S 20 30 11 16 1018.6 1016.8 0.0
08/09:30am 12.9 8.0 4.1 55 4.1 SSE 19 24 10 13 1018.6 1016.8 0.0
08/09:00am 10.7 6.2 4.2 64 3.0 SSE 17 24 9 13 1018.7 1016.9 0.0
08/08:30am 9.7 4.7 4.5 70 2.4 SSW 20 33 11 18 1018.4 1016.6 0.0
08/08:00am 9.5 5.1 4.9 73 2.1 S 17 26 9 14 1018.0 1016.2 0.0
08/07:30am 8.6 4.9 4.4 75 1.9 S 13 19 7 10 1017.9 1016.1 0.0
08/07:00am 7.6 3.3 3.5 75 1.8 SSW 15 20 8 11 1017.5 1015.7 0.0
08/06:30am 7.3 3.0 3.2 75 1.8 SSW 15 20 8 11 1016.9 1015.1 0.0
08/06:00am 7.0 3.0 3.1 76 1.7 SSW 13 17 7 9 1016.7 1014.9 0.0
08/05:30am 6.4 2.4 2.7 77 1.6 SSW 13 17 7 9 1016.5 1014.7 0.0
08/05:00am 6.8 3.7 3.4 79 1.5 SW 9 15 5 8 1016.1 1014.3 0.0
08/04:30am 6.1 2.6 3.3 82 1.2 SW 11 15 6 8 1016.2 1014.4 0.0
08/04:00am 5.8 1.8 3.0 82 1.2 SW 13 19 7 10 1016.1 1014.3 0.0
08/03:30am 6.0 2.4 2.8 80 1.4 SW 11 15 6 8 1015.9 1014.1 0.0
08/03:00am 6.9 2.6 3.2 77 1.6 SSW 15 19 8 10 1015.7 1013.9 0.0
08/02:30am 6.1 2.5 2.7 79 1.4 SW 11 17 6 9 1016.0 1014.2 0.0
08/02:00am 6.2 2.5 2.5 77 1.6 SSW 11 15 6 8 1016.1 1014.3 0.0
08/01:30am 6.7 2.6 2.2 73 1.9 SW 13 17 7 9 1016.3 1014.5 0.0
08/01:00am 6.5 2.8 2.2 74 1.8 SW 11 19 6 10 1016.4 1014.6 0.0
08/12:30am 6.5 2.7 2.0 73 1.9 SSW 11 17 6 9 1016.6 1014.8 0.0
08/12:00am 7.1 2.2 2.2 71 2.1 SSW 17 22 9 12 1016.5 1014.7 0.0
 
Date/Time
CDT
Temp
°C
App
Temp
°C
Dew
Point
°C
Rel
Hum
%
Delta-T
°C
Wind Press
QNH
hPa
Press
MSL
hPa
Rain since
9am
mm
Dir  Spd
km/h
Gust
km/h
Spd
kts
Gust
kts
07/11:30pm 7.2 2.7 2.3 71 2.1 SSW 15 24 8 13 1016.6 1014.8 0.0
07/11:00pm 7.4 2.2 2.7 72 2.0 SSW 19 24 10 13 1016.3 1014.5 0.0
07/10:30pm 8.0 2.4 3.5 73 2.0 SSW 22 33 12 18 1016.2 1014.4 0.0
07/10:00pm 7.9 2.7 3.4 73 2.0 SSW 20 28 11 15 1016.0 1014.2 0.0
07/09:30pm 8.2 2.2 3.5 72 2.1 S 24 30 13 16 1015.6 1013.8 0.0
07/09:00pm 8.9 1.4 3.7 70 2.3 SSW 32 44 17 24 1014.9 1013.1 0.0
07/08:30pm 9.6 4.1 5.8 77 1.8 SSW 24 32 13 17 1014.7 1012.9 0.0
07/08:00pm 10.3 4.4 5.9 74 2.1 SSW 26 37 14 20 1014.3 1012.5 0.0
07/07:30pm 11.7 6.0 6.6 71 2.5 SSW 26 41 14 22 1013.8 1012.0 0.0
07/07:00pm 12.2 5.4 6.7 69 2.7 SSW 32 44 17 24 1013.4 1011.5 0.0
07/06:30pm 13.1 7.1 7.1 67 3.0 SSW 28 37 15 20 1012.7 1010.9 0.0
07/06:00pm 13.6 7.6 7.2 65 3.2 SSW 28 41 15 22 1012.2 1010.4 0.0
07/05:30pm 14.9 9.0 7.7 62 3.7 WSW 28 39 15 21 1012.0 1010.1 0.0
07/05:00pm 16.3 11.0 9.7 65 3.5 WSW 28 44 15 24 1011.7 1009.8 0.0
07/04:46pm 15.7 10.0 8.4 62 3.8 WSW 28 46 15 25 1011.6 1009.7 0.0
07/04:30pm 15.4 9.0 6.9 57 4.3 WSW 30 46 16 25 1011.5 1009.6 0.0

Other formats

Comma delimited format used in spreadsheet applications
http://www.bom.gov.au/fwo/IDS60801/IDS60801.94678.axf

JavaScript Object Notation format (JSON) in row-major order
http://www.bom.gov.au/fwo/IDS60801/IDS60801.94678.json

Data quality

Most of these data are generated automatically and are frequently updated. Quality checks on data are not normally performed. It is possible for incorrect values to appear. Refer to information at About Latest Weather Observations and please check the disclaimer before using these data.